Terminal Aerodrome Forecast
Issued by NWS Charleston, WV

Current Version | Previous Version | Graphics & Text | Print | Product List | Glossary On
Versions: 1 2 3 4 5 6 7 8 9 10 11 12 13 14 15 16 17 18 19 20 21 22
000
FTUS41 KRLX 271100
TAFEKN
TAF
KEKN 271121Z 2712/2812 00000KT P6SM SCT120
     FM272000 22004KT P6SM BKN060
     FM280800 24004KT P6SM OVC030
     FM281000 24004KT P6SM -SHRA OVC030=

USA.gov is the U.S. government's official web portal to all federal, state and local government web resources and services.